Terminal Aerodrome Forecast
Issued by NWS Goodland, KS

Home | Current Version | Previous Version | Text Only | Print | Product List | Glossary On
Versions: 1 2 3 4 5 6 7 8 9 10 11 12 13 14 15 16 17 18 19 20 21 22
502
FTUS43 KGLD 290039 AAA
TAFGLD
TAF AMD
KGLD 290039Z 2901/2924 04015KT 5SM BR OVC004
     FM290300 04015KT 3SM -SHRASN BR OVC003
     FM290600 03015G25KT 3SM -SN OVC003
     FM291800 02025G35KT 2SM -RASN OVC007=

USA.gov is the U.S. government's official web portal to all federal, state and local government web resources and services.